sensor_id;sensor_type;location;lat;lon;timestamp;temperature;humidity
7958;DHT22;4024;52.172;5.378;2022-08-04T00:00:13;26.00;99.90
7958;DHT22;4024;52.172;5.378;2022-08-04T00:08:21;25.90;99.90
7958;DHT22;4024;52.172;5.378;2022-08-04T00:10:53;25.80;99.90
7958;DHT22;4024;52.172;5.378;2022-08-04T00:13:24;25.80;99.90
7958;DHT22;4024;52.172;5.378;2022-08-04T00:15:52;25.80;99.90
7958;DHT22;4024;52.172;5.378;2022-08-04T00:18:22;25.70;99.90
7958;DHT22;4024;52.172;5.378;2022-08-04T00:20:57;25.70;99.90
7958;DHT22;4024;52.172;5.378;2022-08-04T00:23:25;25.60;99.90
7958;DHT22;4024;52.172;5.378;2022-08-04T00:25:52;25.60;99.90
7958;DHT22;4024;52.172;5.378;2022-08-04T00:28:20;25.60;99.90
7958;DHT22;4024;52.172;5.378;2022-08-04T00:30:45;25.50;99.90
7958;DHT22;4024;52.172;5.378;2022-08-04T00:33:18;25.50;99.90
7958;DHT22;4024;52.172;5.378;2022-08-04T00:35:46;25.40;99.90
7958;DHT22;4024;52.172;5.378;2022-08-04T00:38:17;25.40;99.90
7958;DHT22;4024;52.172;5.378;2022-08-04T00:43:23;25.30;99.90
7958;DHT22;4024;52.172;5.378;2022-08-04T00:48:59;25.30;99.90
7958;DHT22;4024;52.172;5.378;2022-08-04T00:52:01;25.20;99.90
7958;DHT22;4024;52.172;5.378;2022-08-04T01:00:07;25.10;99.90
7958;DHT22;4024;52.172;5.378;2022-08-04T01:13:50;24.90;99.90
7958;DHT22;4024;52.172;5.378;2022-08-04T01:16:20;24.80;99.90
7958;DHT22;4024;52.172;5.378;2022-08-04T01:22:16;24.70;99.90
7958;DHT22;4024;52.172;5.378;2022-08-04T01:30:45;24.60;99.90
7958;DHT22;4024;52.172;5.378;2022-08-04T01:33:13;24.60;99.90
7958;DHT22;4024;52.172;5.378;2022-08-04T01:35:54;24.50;99.90
7958;DHT22;4024;52.172;5.378;2022-08-04T01:38:34;24.50;99.90
7958;DHT22;4024;52.172;5.378;2022-08-04T01:41:08;24.40;99.90
7958;DHT22;4024;52.172;5.378;2022-08-04T01:43:38;24.40;99.90
7958;DHT22;4024;52.172;5.378;2022-08-04T01:46:05;24.40;99.90
7958;DHT22;4024;52.172;5.378;2022-08-04T01:48:32;24.40;99.90
7958;DHT22;4024;52.172;5.378;2022-08-04T01:51:03;24.40;99.90
7958;DHT22;4024;52.172;5.378;2022-08-04T01:53:32;24.30;99.90
7958;DHT22;4024;52.172;5.378;2022-08-04T01:56:00;24.30;99.90
7958;DHT22;4024;52.172;5.378;2022-08-04T01:58:29;24.30;99.90
7958;DHT22;4024;52.172;5.378;2022-08-04T02:00:59;24.30;99.90
7958;DHT22;4024;52.172;5.378;2022-08-04T02:03:27;24.20;99.90
7958;DHT22;4024;52.172;5.378;2022-08-04T02:06:47;24.20;99.90
7958;DHT22;4024;52.172;5.378;2022-08-04T02:11:59;24.20;99.90
7958;DHT22;4024;52.172;5.378;2022-08-04T02:14:37;24.20;99.90
7958;DHT22;4024;52.172;5.378;2022-08-04T02:19:50;24.10;99.90
7958;DHT22;4024;52.172;5.378;2022-08-04T02:22:21;24.10;99.90
7958;DHT22;4024;52.172;5.378;2022-08-04T02:25:28;24.10;99.90
7958;DHT22;4024;52.172;5.378;2022-08-04T02:28:10;24.10;99.90
7958;DHT22;4024;52.172;5.378;2022-08-04T02:30:45;24.10;99.90
7958;DHT22;4024;52.172;5.378;2022-08-04T02:33:18;24.00;99.90
7958;DHT22;4024;52.172;5.378;2022-08-04T02:35:45;24.00;99.90
7958;DHT22;4024;52.172;5.378;2022-08-04T02:41:16;24.00;99.90
7958;DHT22;4024;52.172;5.378;2022-08-04T02:43:47;24.00;99.90
7958;DHT22;4024;52.172;5.378;2022-08-04T02:46:14;24.00;99.90
7958;DHT22;4024;52.172;5.378;2022-08-04T02:48:42;23.90;99.90
7958;DHT22;4024;52.172;5.378;2022-08-04T02:51:11;23.90;99.90
7958;DHT22;4024;52.172;5.378;2022-08-04T02:53:40;23.90;99.90
7958;DHT22;4024;52.172;5.378;2022-08-04T02:56:07;23.90;99.90
7958;DHT22;4024;52.172;5.378;2022-08-04T02:58:34;23.80;99.90
7958;DHT22;4024;52.172;5.378;2022-08-04T03:01:02;23.80;99.90
7958;DHT22;4024;52.172;5.378;2022-08-04T03:03:40;23.80;99.90
7958;DHT22;4024;52.172;5.378;2022-08-04T03:08:59;23.80;99.90
7958;DHT22;4024;52.172;5.378;2022-08-04T03:11:47;23.80;99.90
7958;DHT22;4024;52.172;5.378;2022-08-04T03:17:37;23.70;99.90
7958;DHT22;4024;52.172;5.378;2022-08-04T03:20:24;23.70;99.90
7958;DHT22;4024;52.172;5.378;2022-08-04T03:28:59;23.60;99.90
7958;DHT22;4024;52.172;5.378;2022-08-04T03:43:27;23.60;99.90
7958;DHT22;4024;52.172;5.378;2022-08-04T03:46:26;23.60;99.90
7958;DHT22;4024;52.172;5.378;2022-08-04T03:49:32;23.50;99.90
7958;DHT22;4024;52.172;5.378;2022-08-04T03:52:48;23.50;99.90
7958;DHT22;4024;52.172;5.378;2022-08-04T04:15:27;23.40;99.90
7958;DHT22;4024;52.172;5.378;2022-08-04T04:29:19;23.40;99.90
7958;DHT22;4024;52.172;5.378;2022-08-04T04:45:50;23.50;99.90
7958;DHT22;4024;52.172;5.378;2022-08-04T04:48:41;23.50;99.90
7958;DHT22;4024;52.172;5.378;2022-08-04T04:56:36;23.70;99.90
7958;DHT22;4024;52.172;5.378;2022-08-04T04:59:08;23.80;99.90
7958;DHT22;4024;52.172;5.378;2022-08-04T05:10:21;23.80;99.90
7958;DHT22;4024;52.172;5.378;2022-08-04T05:13:16;23.80;99.90
7958;DHT22;4024;52.172;5.378;2022-08-04T05:15:45;23.80;99.90
7958;DHT22;4024;52.172;5.378;2022-08-04T05:18:18;23.90;99.90
7958;DHT22;4024;52.172;5.378;2022-08-04T05:20:49;23.90;99.90
7958;DHT22;4024;52.172;5.378;2022-08-04T05:23:18;24.00;99.90
7958;DHT22;4024;52.172;5.378;2022-08-04T05:25:57;24.00;99.90
7958;DHT22;4024;52.172;5.378;2022-08-04T05:31:05;24.10;99.90
7958;DHT22;4024;52.172;5.378;2022-08-04T05:33:57;24.20;99.90
7958;DHT22;4024;52.172;5.378;2022-08-04T05:36:46;24.20;99.90
7958;DHT22;4024;52.172;5.378;2022-08-04T05:39:18;24.30;99.90
7958;DHT22;4024;52.172;5.378;2022-08-04T05:41:47;24.40;99.90
7958;DHT22;4024;52.172;5.378;2022-08-04T05:44:15;24.50;99.90
7958;DHT22;4024;52.172;5.378;2022-08-04T05:46:43;24.60;99.90
7958;DHT22;4024;52.172;5.378;2022-08-04T05:49:10;24.70;99.90
7958;DHT22;4024;52.172;5.378;2022-08-04T05:51:36;24.80;99.90
7958;DHT22;4024;52.172;5.378;2022-08-04T05:54:04;24.90;99.90
7958;DHT22;4024;52.172;5.378;2022-08-04T05:56:32;24.90;99.90
7958;DHT22;4024;52.172;5.378;2022-08-04T05:59:00;25.00;99.90
7958;DHT22;4024;52.172;5.378;2022-08-04T06:01:28;25.10;99.90
7958;DHT22;4024;52.172;5.378;2022-08-04T06:03:56;25.10;99.90
7958;DHT22;4024;52.172;5.378;2022-08-04T06:06:24;25.20;99.90
7958;DHT22;4024;52.172;5.378;2022-08-04T06:08:51;25.20;99.90
7958;DHT22;4024;52.172;5.378;2022-08-04T06:11:18;25.30;99.90
7958;DHT22;4024;52.172;5.378;2022-08-04T06:13:50;25.30;99.90
7958;DHT22;4024;52.172;5.378;2022-08-04T06:16:23;25.40;99.90
7958;DHT22;4024;52.172;5.378;2022-08-04T06:18:52;25.40;99.90
7958;DHT22;4024;52.172;5.378;2022-08-04T06:21:21;25.40;99.90
7958;DHT22;4024;52.172;5.378;2022-08-04T06:23:48;25.40;99.90
7958;DHT22;4024;52.172;5.378;2022-08-04T06:26:16;25.50;99.90
7958;DHT22;4024;52.172;5.378;2022-08-04T06:28:49;25.60;99.90
7958;DHT22;4024;52.172;5.378;2022-08-04T06:31:16;25.70;99.90
7958;DHT22;4024;52.172;5.378;2022-08-04T06:34:04;25.70;99.90
7958;DHT22;4024;52.172;5.378;2022-08-04T06:36:30;25.70;99.90
7958;DHT22;4024;52.172;5.378;2022-08-04T06:38:58;25.70;99.90
7958;DHT22;4024;52.172;5.378;2022-08-04T06:41:25;25.80;99.90
7958;DHT22;4024;52.172;5.378;2022-08-04T06:43:52;25.80;99.90
7958;DHT22;4024;52.172;5.378;2022-08-04T06:46:19;25.80;99.90
7958;DHT22;4024;52.172;5.378;2022-08-04T06:48:45;25.90;99.90
7958;DHT22;4024;52.172;5.378;2022-08-04T06:51:12;25.90;99.90
7958;DHT22;4024;52.172;5.378;2022-08-04T06:53:39;26.00;99.90
7958;DHT22;4024;52.172;5.378;2022-08-04T06:56:07;26.00;99.90
7958;DHT22;4024;52.172;5.378;2022-08-04T06:58:34;26.10;99.90
7958;DHT22;4024;52.172;5.378;2022-08-04T07:01:01;26.10;99.90
7958;DHT22;4024;52.172;5.378;2022-08-04T07:03:27;26.20;99.90
7958;DHT22;4024;52.172;5.378;2022-08-04T07:05:54;26.20;99.90
7958;DHT22;4024;52.172;5.378;2022-08-04T07:08:20;26.30;99.90
7958;DHT22;4024;52.172;5.378;2022-08-04T07:10:46;26.30;99.90
7958;DHT22;4024;52.172;5.378;2022-08-04T07:13:13;26.30;99.90
7958;DHT22;4024;52.172;5.378;2022-08-04T07:15:41;26.30;99.90
7958;DHT22;4024;52.172;5.378;2022-08-04T07:18:08;26.40;99.90
7958;DHT22;4024;52.172;5.378;2022-08-04T07:20:34;26.40;99.90
7958;DHT22;4024;52.172;5.378;2022-08-04T07:23:00;26.40;99.90
7958;DHT22;4024;52.172;5.378;2022-08-04T07:25:26;26.50;99.90
7958;DHT22;4024;52.172;5.378;2022-08-04T07:27:52;26.50;99.90
7958;DHT22;4024;52.172;5.378;2022-08-04T07:30:18;26.50;99.90
7958;DHT22;4024;52.172;5.378;2022-08-04T07:32:44;26.50;99.90
7958;DHT22;4024;52.172;5.378;2022-08-04T07:35:12;26.70;99.90
7958;DHT22;4024;52.172;5.378;2022-08-04T07:37:38;26.70;99.90
7958;DHT22;4024;52.172;5.378;2022-08-04T07:40:06;26.70;99.90
7958;DHT22;4024;52.172;5.378;2022-08-04T07:42:32;26.80;99.90
7958;DHT22;4024;52.172;5.378;2022-08-04T07:44:59;26.80;99.90
7958;DHT22;4024;52.172;5.378;2022-08-04T07:47:25;26.90;99.90
7958;DHT22;4024;52.172;5.378;2022-08-04T07:49:51;27.00;99.90
7958;DHT22;4024;52.172;5.378;2022-08-04T07:52:17;27.00;99.90
7958;DHT22;4024;52.172;5.378;2022-08-04T07:54:43;27.00;99.90
7958;DHT22;4024;52.172;5.378;2022-08-04T07:57:09;27.00;99.90
7958;DHT22;4024;52.172;5.378;2022-08-04T07:59:35;27.00;99.90
7958;DHT22;4024;52.172;5.378;2022-08-04T08:02:01;27.10;99.90
7958;DHT22;4024;52.172;5.378;2022-08-04T08:04:28;27.10;99.90
7958;DHT22;4024;52.172;5.378;2022-08-04T08:06:56;27.10;99.90
7958;DHT22;4024;52.172;5.378;2022-08-04T08:09:22;27.10;99.90
7958;DHT22;4024;52.172;5.378;2022-08-04T08:11:50;27.20;99.90
7958;DHT22;4024;52.172;5.378;2022-08-04T08:14:16;27.20;99.90
7958;DHT22;4024;52.172;5.378;2022-08-04T08:16:43;27.20;99.90
7958;DHT22;4024;52.172;5.378;2022-08-04T08:19:09;27.30;99.90
7958;DHT22;4024;52.172;5.378;2022-08-04T08:21:35;27.30;99.90
7958;DHT22;4024;52.172;5.378;2022-08-04T08:24:02;27.40;99.90
7958;DHT22;4024;52.172;5.378;2022-08-04T08:26:28;27.40;99.90
7958;DHT22;4024;52.172;5.378;2022-08-04T08:28:55;27.50;99.90
7958;DHT22;4024;52.172;5.378;2022-08-04T08:31:21;27.50;99.90
7958;DHT22;4024;52.172;5.378;2022-08-04T08:33:49;27.50;99.90
7958;DHT22;4024;52.172;5.378;2022-08-04T08:58:51;27.60;99.90
7958;DHT22;4024;52.172;5.378;2022-08-04T09:02:01;27.60;99.90
7958;DHT22;4024;52.172;5.378;2022-08-04T09:07:48;27.70;99.90
7958;DHT22;4024;52.172;5.378;2022-08-04T09:10:23;27.80;99.90
7958;DHT22;4024;52.172;5.378;2022-08-04T09:12:54;27.80;99.90
7958;DHT22;4024;52.172;5.378;2022-08-04T09:17:53;27.90;99.90
7958;DHT22;4024;52.172;5.378;2022-08-04T09:25:46;28.00;99.90
7958;DHT22;4024;52.172;5.378;2022-08-04T09:28:22;28.00;99.90
7958;DHT22;4024;52.172;5.378;2022-08-04T09:31:05;28.10;99.90
7958;DHT22;4024;52.172;5.378;2022-08-04T09:34:00;28.10;99.90
7958;DHT22;4024;52.172;5.378;2022-08-04T09:36:38;28.20;99.90
7958;DHT22;4024;52.172;5.378;2022-08-04T09:39:25;28.20;99.90
7958;DHT22;4024;52.172;5.378;2022-08-04T09:42:08;28.30;99.90
7958;DHT22;4024;52.172;5.378;2022-08-04T09:44:43;28.30;99.90
7958;DHT22;4024;52.172;5.378;2022-08-04T09:50:36;28.40;99.90
7958;DHT22;4024;52.172;5.378;2022-08-04T09:56:09;28.60;99.90
7958;DHT22;4024;52.172;5.378;2022-08-04T10:01:35;28.80;99.90
7958;DHT22;4024;52.172;5.378;2022-08-04T10:04:07;28.90;99.90
7958;DHT22;4024;52.172;5.378;2022-08-04T10:07:03;29.00;99.90
7958;DHT22;4024;52.172;5.378;2022-08-04T10:14:51;29.30;99.90
7958;DHT22;4024;52.172;5.378;2022-08-04T10:28:16;29.50;99.90
7958;DHT22;4024;52.172;5.378;2022-08-04T10:30:48;29.50;99.90
7958;DHT22;4024;52.172;5.378;2022-08-04T10:33:18;29.50;99.90
7958;DHT22;4024;52.172;5.378;2022-08-04T10:35:52;29.40;99.90
7958;DHT22;4024;52.172;5.378;2022-08-04T10:41:29;29.40;99.90
7958;DHT22;4024;52.172;5.378;2022-08-04T10:46:53;29.20;99.90
7958;DHT22;4024;52.172;5.378;2022-08-04T10:49:45;29.20;99.90
7958;DHT22;4024;52.172;5.378;2022-08-04T10:52:30;29.10;99.90
7958;DHT22;4024;52.172;5.378;2022-08-04T10:55:18;29.00;99.90
7958;DHT22;4024;52.172;5.378;2022-08-04T10:58:15;29.00;99.90
7958;DHT22;4024;52.172;5.378;2022-08-04T11:00:43;28.90;99.90
7958;DHT22;4024;52.172;5.378;2022-08-04T11:03:37;28.90;99.90
7958;DHT22;4024;52.172;5.378;2022-08-04T11:06:05;28.80;99.90
7958;DHT22;4024;52.172;5.378;2022-08-04T11:08:53;28.70;99.90
7958;DHT22;4024;52.172;5.378;2022-08-04T11:11:28;28.60;99.90
7958;DHT22;4024;52.172;5.378;2022-08-04T11:14:09;28.60;99.90
7958;DHT22;4024;52.172;5.378;2022-08-04T11:16:43;28.50;99.90
7958;DHT22;4024;52.172;5.378;2022-08-04T11:19:33;28.40;99.90
7958;DHT22;4024;52.172;5.378;2022-08-04T11:22:09;28.40;99.90
7958;DHT22;4024;52.172;5.378;2022-08-04T11:24:51;28.50;99.90
7958;DHT22;4024;52.172;5.378;2022-08-04T11:27:27;28.50;99.90
7958;DHT22;4024;52.172;5.378;2022-08-04T11:30:06;28.60;99.90
7958;DHT22;4024;52.172;5.378;2022-08-04T11:35:41;28.70;99.90
7958;DHT22;4024;52.172;5.378;2022-08-04T11:40:52;28.90;99.90
7958;DHT22;4024;52.172;5.378;2022-08-04T11:43:23;29.10;99.90
7958;DHT22;4024;52.172;5.378;2022-08-04T11:45:57;29.20;99.90
7958;DHT22;4024;52.172;5.378;2022-08-04T11:48:32;29.30;99.90
7958;DHT22;4024;52.172;5.378;2022-08-04T11:51:00;29.30;99.90
7958;DHT22;4024;52.172;5.378;2022-08-04T11:53:30;29.40;99.90
7958;DHT22;4024;52.172;5.378;2022-08-04T11:56:01;29.50;99.90
7958;DHT22;4024;52.172;5.378;2022-08-04T11:58:27;29.60;99.90
7958;DHT22;4024;52.172;5.378;2022-08-04T12:01:09;29.60;99.90
7958;DHT22;4024;52.172;5.378;2022-08-04T12:06:55;29.70;99.90
7958;DHT22;4024;52.172;5.378;2022-08-04T12:12:27;29.80;99.90
7958;DHT22;4024;52.172;5.378;2022-08-04T12:15:11;29.90;99.90
7958;DHT22;4024;52.172;5.378;2022-08-04T12:17:47;29.90;99.90
7958;DHT22;4024;52.172;5.378;2022-08-04T12:20:18;29.90;99.90
7958;DHT22;4024;52.172;5.378;2022-08-04T12:22:49;30.00;99.90
7958;DHT22;4024;52.172;5.378;2022-08-04T12:25:27;30.00;99.90
7958;DHT22;4024;52.172;5.378;2022-08-04T12:28:02;30.00;99.90
7958;DHT22;4024;52.172;5.378;2022-08-04T12:30:33;29.90;99.90
7958;DHT22;4024;52.172;5.378;2022-08-04T12:33:11;30.00;99.90
7958;DHT22;4024;52.172;5.378;2022-08-04T12:35:59;30.00;99.90
7958;DHT22;4024;52.172;5.378;2022-08-04T12:38:29;30.00;99.90
7958;DHT22;4024;52.172;5.378;2022-08-04T12:40:59;30.00;99.90
7958;DHT22;4024;52.172;5.378;2022-08-04T12:43:38;30.00;99.90
7958;DHT22;4024;52.172;5.378;2022-08-04T12:46:12;30.00;99.90
7958;DHT22;4024;52.172;5.378;2022-08-04T12:48:45;30.10;99.90
7958;DHT22;4024;52.172;5.378;2022-08-04T12:51:11;30.10;99.90
7958;DHT22;4024;52.172;5.378;2022-08-04T12:53:42;30.20;99.90
7958;DHT22;4024;52.172;5.378;2022-08-04T12:56:12;30.20;99.90
7958;DHT22;4024;52.172;5.378;2022-08-04T12:58:44;30.20;99.90
7958;DHT22;4024;52.172;5.378;2022-08-04T13:01:16;30.20;99.90
7958;DHT22;4024;52.172;5.378;2022-08-04T13:03:47;30.20;99.90
7958;DHT22;4024;52.172;5.378;2022-08-04T13:06:14;30.30;99.90
7958;DHT22;4024;52.172;5.378;2022-08-04T13:08:44;30.30;99.90
7958;DHT22;4024;52.172;5.378;2022-08-04T13:11:11;30.30;99.90
7958;DHT22;4024;52.172;5.378;2022-08-04T13:13:38;30.30;99.90
7958;DHT22;4024;52.172;5.378;2022-08-04T13:16:08;30.30;99.90
7958;DHT22;4024;52.172;5.378;2022-08-04T13:18:39;30.20;99.90
7958;DHT22;4024;52.172;5.378;2022-08-04T13:23:42;30.20;99.90
7958;DHT22;4024;52.172;5.378;2022-08-04T13:26:12;30.20;99.90
7958;DHT22;4024;52.172;5.378;2022-08-04T13:28:41;30.30;99.90
7958;DHT22;4024;52.172;5.378;2022-08-04T13:31:12;30.30;99.90
7958;DHT22;4024;52.172;5.378;2022-08-04T13:33:41;30.30;99.90
7958;DHT22;4024;52.172;5.378;2022-08-04T13:36:08;30.30;99.90
7958;DHT22;4024;52.172;5.378;2022-08-04T13:38:36;30.40;99.90
7958;DHT22;4024;52.172;5.378;2022-08-04T13:41:04;30.40;99.90
7958;DHT22;4024;52.172;5.378;2022-08-04T13:43:33;30.50;99.90
7958;DHT22;4024;52.172;5.378;2022-08-04T13:46:05;30.50;99.90
7958;DHT22;4024;52.172;5.378;2022-08-04T13:48:38;30.50;99.90
7958;DHT22;4024;52.172;5.378;2022-08-04T13:51:05;30.50;99.90
7958;DHT22;4024;52.172;5.378;2022-08-04T13:53:33;30.50;99.90
7958;DHT22;4024;52.172;5.378;2022-08-04T13:56:00;30.50;99.90
7958;DHT22;4024;52.172;5.378;2022-08-04T13:58:30;30.50;99.90
7958;DHT22;4024;52.172;5.378;2022-08-04T14:01:02;30.40;99.90
7958;DHT22;4024;52.172;5.378;2022-08-04T14:03:36;30.50;99.90
7958;DHT22;4024;52.172;5.378;2022-08-04T14:06:09;30.40;99.90
7958;DHT22;4024;52.172;5.378;2022-08-04T14:08:49;30.40;99.90
7958;DHT22;4024;52.172;5.378;2022-08-04T14:11:18;30.40;99.90
7958;DHT22;4024;52.172;5.378;2022-08-04T14:13:44;30.50;99.90
7958;DHT22;4024;52.172;5.378;2022-08-04T14:16:20;30.50;99.90
7958;DHT22;4024;52.172;5.378;2022-08-04T14:18:47;30.40;99.90
7958;DHT22;4024;52.172;5.378;2022-08-04T14:21:16;30.40;99.90
7958;DHT22;4024;52.172;5.378;2022-08-04T14:23:50;30.40;99.90
7958;DHT22;4024;52.172;5.378;2022-08-04T14:29:10;30.50;99.90
7958;DHT22;4024;52.172;5.378;2022-08-04T14:31:36;30.50;99.90
7958;DHT22;4024;52.172;5.378;2022-08-04T14:34:02;30.50;99.90
7958;DHT22;4024;52.172;5.378;2022-08-04T14:36:40;30.50;99.90
7958;DHT22;4024;52.172;5.378;2022-08-04T14:39:07;30.50;99.90
7958;DHT22;4024;52.172;5.378;2022-08-04T14:41:46;30.60;99.90
7958;DHT22;4024;52.172;5.378;2022-08-04T14:44:13;30.60;99.90
7958;DHT22;4024;52.172;5.378;2022-08-04T14:46:49;30.60;99.90
7958;DHT22;4024;52.172;5.378;2022-08-04T14:49:16;30.50;99.90
7958;DHT22;4024;52.172;5.378;2022-08-04T14:51:44;30.50;99.90
7958;DHT22;4024;52.172;5.378;2022-08-04T14:54:13;30.50;99.90
7958;DHT22;4024;52.172;5.378;2022-08-04T14:56:41;30.50;99.90
7958;DHT22;4024;52.172;5.378;2022-08-04T14:59:09;30.50;99.90
7958;DHT22;4024;52.172;5.378;2022-08-04T15:01:37;30.50;99.90
7958;DHT22;4024;52.172;5.378;2022-08-04T15:04:04;30.50;99.90
7958;DHT22;4024;52.172;5.378;2022-08-04T15:06:32;30.50;99.90
7958;DHT22;4024;52.172;5.378;2022-08-04T15:09:04;30.50;99.90
7958;DHT22;4024;52.172;5.378;2022-08-04T15:11:33;30.50;99.90
7958;DHT22;4024;52.172;5.378;2022-08-04T15:13:59;30.50;99.90
7958;DHT22;4024;52.172;5.378;2022-08-04T15:16:27;30.60;99.90
7958;DHT22;4024;52.172;5.378;2022-08-04T15:18:53;30.60;99.90
7958;DHT22;4024;52.172;5.378;2022-08-04T15:21:20;30.60;99.70
7958;DHT22;4024;52.172;5.378;2022-08-04T15:23:50;30.50;99.40
7958;DHT22;4024;52.172;5.378;2022-08-04T15:29:14;30.50;99.90
7958;DHT22;4024;52.172;5.378;2022-08-04T15:31:42;30.50;99.90
7958;DHT22;4024;52.172;5.378;2022-08-04T15:34:09;30.40;99.90
7958;DHT22;4024;52.172;5.378;2022-08-04T15:36:46;30.30;99.70
7958;DHT22;4024;52.172;5.378;2022-08-04T15:44:42;30.20;99.90
7958;DHT22;4024;52.172;5.378;2022-08-04T15:47:13;30.20;98.80
7958;DHT22;4024;52.172;5.378;2022-08-04T15:49:40;30.10;98.70
7958;DHT22;4024;52.172;5.378;2022-08-04T15:52:10;30.10;98.30
7958;DHT22;4024;52.172;5.378;2022-08-04T15:54:36;30.10;98.90
7958;DHT22;4024;52.172;5.378;2022-08-04T15:57:04;30.00;98.90
7958;DHT22;4024;52.172;5.378;2022-08-04T16:02:44;30.10;99.90
7958;DHT22;4024;52.172;5.378;2022-08-04T16:07:58;30.10;99.50
7958;DHT22;4024;52.172;5.378;2022-08-04T16:13:02;30.00;98.70
7958;DHT22;4024;52.172;5.378;2022-08-04T16:15:46;29.90;99.00
7958;DHT22;4024;52.172;5.378;2022-08-04T16:18:36;29.90;99.20
7958;DHT22;4024;52.172;5.378;2022-08-04T16:21:05;29.80;99.70
7958;DHT22;4024;52.172;5.378;2022-08-04T16:26:13;29.60;99.70
7958;DHT22;4024;52.172;5.378;2022-08-04T16:28:40;29.30;99.90
7958;DHT22;4024;52.172;5.378;2022-08-04T16:31:11;29.20;99.90
7958;DHT22;4024;52.172;5.378;2022-08-04T16:33:38;29.20;99.90
7958;DHT22;4024;52.172;5.378;2022-08-04T16:36:06;29.20;99.90
7958;DHT22;4024;52.172;5.378;2022-08-04T16:39:00;29.20;99.90
7958;DHT22;4024;52.172;5.378;2022-08-04T16:41:40;29.20;99.90
7958;DHT22;4024;52.172;5.378;2022-08-04T16:44:32;29.10;99.90
7958;DHT22;4024;52.172;5.378;2022-08-04T16:47:00;29.20;99.90
7958;DHT22;4024;52.172;5.378;2022-08-04T16:49:26;29.10;99.90
7958;DHT22;4024;52.172;5.378;2022-08-04T16:51:53;29.10;99.90
7958;DHT22;4024;52.172;5.378;2022-08-04T16:54:23;29.00;99.90
7958;DHT22;4024;52.172;5.378;2022-08-04T16:56:49;29.00;99.90
7958;DHT22;4024;52.172;5.378;2022-08-04T16:59:14;28.90;99.90
7958;DHT22;4024;52.172;5.378;2022-08-04T17:01:49;28.90;99.90
7958;DHT22;4024;52.172;5.378;2022-08-04T17:04:17;28.80;99.90
7958;DHT22;4024;52.172;5.378;2022-08-04T17:06:44;28.80;99.90
7958;DHT22;4024;52.172;5.378;2022-08-04T17:09:17;28.80;99.90
7958;DHT22;4024;52.172;5.378;2022-08-04T17:11:45;28.70;99.90
7958;DHT22;4024;52.172;5.378;2022-08-04T17:14:11;28.60;99.90
7958;DHT22;4024;52.172;5.378;2022-08-04T17:16:40;28.50;99.90
7958;DHT22;4024;52.172;5.378;2022-08-04T17:19:06;28.50;99.90
7958;DHT22;4024;52.172;5.378;2022-08-04T17:21:35;28.40;99.90
7958;DHT22;4024;52.172;5.378;2022-08-04T17:24:03;28.40;99.90
7958;DHT22;4024;52.172;5.378;2022-08-04T17:26:39;28.30;99.90
7958;DHT22;4024;52.172;5.378;2022-08-04T17:29:05;28.30;99.90
7958;DHT22;4024;52.172;5.378;2022-08-04T17:31:32;28.20;99.90
7958;DHT22;4024;52.172;5.378;2022-08-04T17:34:02;28.20;99.90
7958;DHT22;4024;52.172;5.378;2022-08-04T17:36:32;28.10;99.90
7958;DHT22;4024;52.172;5.378;2022-08-04T17:39:09;28.10;99.90
7958;DHT22;4024;52.172;5.378;2022-08-04T17:41:36;28.00;99.90
7958;DHT22;4024;52.172;5.378;2022-08-04T17:44:03;27.90;99.90
7958;DHT22;4024;52.172;5.378;2022-08-04T17:46:39;27.90;99.90
7958;DHT22;4024;52.172;5.378;2022-08-04T17:54:08;27.60;99.90
7958;DHT22;4024;52.172;5.378;2022-08-04T17:56:41;27.50;99.90
7958;DHT22;4024;52.172;5.378;2022-08-04T17:59:11;27.40;99.90
7958;DHT22;4024;52.172;5.378;2022-08-04T18:01:43;27.30;99.90
7958;DHT22;4024;52.172;5.378;2022-08-04T18:04:25;27.30;99.90
7958;DHT22;4024;52.172;5.378;2022-08-04T18:06:55;27.10;99.90
7958;DHT22;4024;52.172;5.378;2022-08-04T18:09:32;27.10;99.90
7958;DHT22;4024;52.172;5.378;2022-08-04T18:12:07;27.00;99.90
7958;DHT22;4024;52.172;5.378;2022-08-04T18:14:40;26.90;99.90
7958;DHT22;4024;52.172;5.378;2022-08-04T18:17:06;26.90;99.90
7958;DHT22;4024;52.172;5.378;2022-08-04T18:19:32;26.80;99.90
7958;DHT22;4024;52.172;5.378;2022-08-04T18:21:58;26.80;99.90
7958;DHT22;4024;52.172;5.378;2022-08-04T18:24:23;26.70;99.90
7958;DHT22;4024;52.172;5.378;2022-08-04T18:26:51;26.70;99.90
7958;DHT22;4024;52.172;5.378;2022-08-04T18:29:16;26.70;99.90
7958;DHT22;4024;52.172;5.378;2022-08-04T18:31:42;26.60;99.90
7958;DHT22;4024;52.172;5.378;2022-08-04T18:34:07;26.50;99.90
7958;DHT22;4024;52.172;5.378;2022-08-04T18:36:34;26.50;99.90
7958;DHT22;4024;52.172;5.378;2022-08-04T18:39:02;26.40;99.90
7958;DHT22;4024;52.172;5.378;2022-08-04T18:41:28;26.40;99.90
7958;DHT22;4024;52.172;5.378;2022-08-04T18:43:55;26.30;99.90
7958;DHT22;4024;52.172;5.378;2022-08-04T18:46:21;26.20;99.90
7958;DHT22;4024;52.172;5.378;2022-08-04T18:48:47;26.20;99.90
7958;DHT22;4024;52.172;5.378;2022-08-04T18:51:13;26.10;99.90
7958;DHT22;4024;52.172;5.378;2022-08-04T18:53:39;26.10;99.90
7958;DHT22;4024;52.172;5.378;2022-08-04T18:56:05;26.00;99.90
7958;DHT22;4024;52.172;5.378;2022-08-04T18:58:31;26.00;99.90
7958;DHT22;4024;52.172;5.378;2022-08-04T19:00:57;25.90;99.90
7958;DHT22;4024;52.172;5.378;2022-08-04T19:03:22;25.90;99.90
7958;DHT22;4024;52.172;5.378;2022-08-04T19:05:49;25.90;99.90
7958;DHT22;4024;52.172;5.378;2022-08-04T19:08:14;25.80;99.90
7958;DHT22;4024;52.172;5.378;2022-08-04T19:10:40;25.80;99.90
7958;DHT22;4024;52.172;5.378;2022-08-04T19:13:06;25.80;99.90
7958;DHT22;4024;52.172;5.378;2022-08-04T19:15:31;25.70;99.90
7958;DHT22;4024;52.172;5.378;2022-08-04T19:17:57;25.70;99.90
7958;DHT22;4024;52.172;5.378;2022-08-04T19:20:24;25.70;99.90
7958;DHT22;4024;52.172;5.378;2022-08-04T19:22:50;25.70;99.90
7958;DHT22;4024;52.172;5.378;2022-08-04T19:25:16;25.60;99.90
7958;DHT22;4024;52.172;5.378;2022-08-04T19:27:41;25.60;99.90
7958;DHT22;4024;52.172;5.378;2022-08-04T19:30:08;25.50;99.90
7958;DHT22;4024;52.172;5.378;2022-08-04T19:32:35;25.40;99.90
7958;DHT22;4024;52.172;5.378;2022-08-04T19:35:01;25.40;99.90
7958;DHT22;4024;52.172;5.378;2022-08-04T19:37:26;25.40;99.90
7958;DHT22;4024;52.172;5.378;2022-08-04T19:39:52;25.40;99.90
7958;DHT22;4024;52.172;5.378;2022-08-04T19:42:18;25.30;99.90
7958;DHT22;4024;52.172;5.378;2022-08-04T19:44:43;25.30;99.90
7958;DHT22;4024;52.172;5.378;2022-08-04T19:47:09;25.20;99.90
7958;DHT22;4024;52.172;5.378;2022-08-04T19:49:35;25.10;99.90
7958;DHT22;4024;52.172;5.378;2022-08-04T19:52:01;25.20;99.90
7958;DHT22;4024;52.172;5.378;2022-08-04T19:54:26;25.10;99.90
7958;DHT22;4024;52.172;5.378;2022-08-04T19:56:52;25.10;99.90
7958;DHT22;4024;52.172;5.378;2022-08-04T19:59:18;25.00;99.90
7958;DHT22;4024;52.172;5.378;2022-08-04T20:01:43;25.00;99.90
7958;DHT22;4024;52.172;5.378;2022-08-04T20:04:09;25.00;99.90
7958;DHT22;4024;52.172;5.378;2022-08-04T20:06:35;24.90;99.90
7958;DHT22;4024;52.172;5.378;2022-08-04T20:09:00;24.80;99.90
7958;DHT22;4024;52.172;5.378;2022-08-04T20:11:26;24.80;99.90
7958;DHT22;4024;52.172;5.378;2022-08-04T20:13:51;24.80;99.90
7958;DHT22;4024;52.172;5.378;2022-08-04T20:16:17;24.70;99.90
7958;DHT22;4024;52.172;5.378;2022-08-04T20:18:43;24.70;99.90
7958;DHT22;4024;52.172;5.378;2022-08-04T20:21:09;24.70;99.90
7958;DHT22;4024;52.172;5.378;2022-08-04T20:23:35;24.60;99.90
7958;DHT22;4024;52.172;5.378;2022-08-04T20:26:00;24.60;99.90